Time;durP1;ratioP1;P1;durP2;ratioP2;P2;SDS_P1;SDS_P2;PMS_P1;PMS_P2;Temp;Humidity;BMP_temperature;BMP_pressure;BME280_temperature;BME280_humidity;BME280_pressure;Samples;Min_cycle;Max_cycle;Signal;HPM_P1;HPM_P2
2022/12/07 00:01:43;;;;;;;8.37;7.37;;;;;;;5.13;86.58;95545.09;4932247;29;20205;-82
2022/12/07 00:04:13;;;;;;;8.67;7.80;;;;;;;5.18;85.85;95540.38;4933152;29;20201;-82
2022/12/07 00:06:42;;;;;;;7.40;6.70;;;;;;;5.20;85.85;95537.66;4925114;29;20202;-80
2022/12/07 00:09:11;;;;;;;8.43;7.53;;;;;;;5.20;85.39;95535.09;4932375;29;20225;-80
2022/12/07 00:11:38;;;;;;;8.70;7.37;;;;;;;5.17;85.64;95533.66;4932547;29;20220;-81
2022/12/07 00:14:07;;;;;;;8.70;7.40;;;;;;;5.16;85.36;95537.16;4932409;29;20209;-81
2022/12/07 00:16:35;;;;;;;7.80;7.00;;;;;;;5.18;85.78;95531.91;4932760;29;20198;-82
2022/12/07 00:19:03;;;;;;;8.97;7.10;;;;;;;5.16;85.27;95537.16;4932367;29;20230;-82
2022/12/07 00:21:33;;;;;;;7.93;7.13;;;;;;;5.14;85.33;95530.59;4932264;29;20198;-81
2022/12/07 00:24:00;;;;;;;8.00;7.20;;;;;;;5.05;85.80;95531.44;4932742;29;20213;-81
2022/12/07 00:26:29;;;;;;;7.73;6.73;;;;;;;5.10;85.75;95524.97;4932632;29;20198;-81
2022/12/07 00:28:57;;;;;;;8.47;7.57;;;;;;;5.13;85.77;95521.31;4931717;29;20221;-81
2022/12/07 00:31:26;;;;;;;8.13;7.33;;;;;;;5.09;85.66;95520.00;4932118;29;20209;-82
2022/12/07 00:33:53;;;;;;;9.50;7.13;;;;;;;5.05;85.84;95521.22;4932613;29;20220;-79
2022/12/07 00:36:22;;;;;;;7.70;6.90;;;;;;;5.11;85.42;95526.56;4932341;29;20202;-80
2022/12/07 00:38:50;;;;;;;8.20;7.07;;;;;;;5.04;84.48;95524.72;4932402;29;20228;-80
2022/12/07 00:41:19;;;;;;;7.57;6.63;;;;;;;5.04;85.12;95522.97;4924294;29;20206;-79
2022/12/07 00:43:47;;;;;;;7.80;6.73;;;;;;;5.06;85.30;95521.09;4932089;29;20198;-80
2022/12/07 00:46:14;;;;;;;8.30;6.87;;;;;;;5.08;85.01;95515.84;4932631;29;20198;-81
2022/12/07 00:48:41;;;;;;;7.53;6.80;;;;;;;5.13;84.95;95517.03;4932181;29;20236;-80
2022/12/07 00:51:08;;;;;;;7.87;7.07;;;;;;;5.14;84.52;95518.63;4932621;29;20197;-82
2022/12/07 00:53:35;;;;;;;7.87;6.57;;;;;;;5.10;84.72;95521.59;4932409;29;20585;-81
2022/12/07 00:56:07;;;;;;;8.43;6.60;;;;;;;5.08;84.93;95521.75;4932894;29;20209;-81
2022/12/07 00:58:33;;;;;;;7.63;6.90;;;;;;;5.12;85.07;95524.81;4932158;29;20606;-81
2022/12/07 01:01:01;;;;;;;7.63;6.80;;;;;;;5.09;84.75;95525.91;4932215;29;20412;-82
2022/12/07 01:03:27;;;;;;;7.30;6.60;;;;;;;5.10;85.00;95527.50;4932127;29;20205;-80
2022/12/07 01:05:56;;;;;;;8.27;6.90;;;;;;;5.12;84.47;95520.53;4932518;29;20202;-82
2022/12/07 01:08:24;;;;;;;7.80;7.00;;;;;;;5.12;84.66;95514.63;4935019;29;20201;-79
2022/12/07 01:10:58;;;;;;;8.00;6.73;;;;;;;5.12;84.86;95522.28;4935518;29;20225;-81
2022/12/07 01:13:28;;;;;;;7.87;7.00;;;;;;;4.95;85.30;95517.94;4935194;29;20190;-81
2022/12/07 01:15:58;;;;;;;7.40;6.17;;;;;;;4.99;85.30;95516.72;4935685;29;20205;-82
2022/12/07 01:18:24;;;;;;;7.70;6.63;;;;;;;4.99;85.24;95519.28;4934660;29;20236;-81
2022/12/07 01:20:58;;;;;;;7.87;7.03;;;;;;;4.96;84.67;95520.34;4935705;29;20211;-80
2022/12/07 01:23:25;;;;;;;7.43;6.67;;;;;;;4.91;85.33;95527.63;4934857;29;20799;-79
2022/12/07 01:25:55;;;;;;;7.87;6.97;;;;;;;4.93;84.97;95518.09;4935296;29;20198;-81
2022/12/07 01:28:21;;;;;;;8.20;7.40;;;;;;;4.90;85.32;95515.81;4935622;29;20186;-81
2022/12/07 01:30:57;;;;;;;7.30;6.60;;;;;;;4.91;85.34;95521.72;4934856;29;20209;-81
2022/12/07 01:33:23;;;;;;;8.93;6.57;;;;;;;4.91;85.48;95524.28;4935512;29;20200;-80
2022/12/07 01:35:50;;;;;;;8.03;7.07;;;;;;;4.92;85.54;95526.69;4935067;29;20209;-82
2022/12/07 01:38:17;;;;;;;7.67;6.93;;;;;;;4.98;85.37;95532.97;4935368;29;20226;-81
2022/12/07 01:40:43;;;;;;;8.50;6.60;;;;;;;4.98;85.29;95525.31;4934764;29;20213;-80
2022/12/07 01:43:18;;;;;;;7.37;6.57;;;;;;;4.98;84.73;95520.22;4935640;29;20201;-81
2022/12/07 01:45:45;;;;;;;7.57;6.63;;;;;;;4.94;85.30;95521.44;4935242;29;20193;-81
2022/12/07 01:48:16;;;;;;;8.07;7.23;;;;;;;4.96;85.11;95524.66;4935144;29;20198;-81
2022/12/07 01:50:45;;;;;;;7.27;6.57;;;;;;;4.79;85.78;95523.69;4928868;29;20240;-82
2022/12/07 01:53:13;;;;;;;6.83;6.07;;;;;;;4.81;85.99;95509.03;4935424;29;20208;-81
2022/12/07 01:55:44;;;;;;;8.20;6.60;;;;;;;4.86;85.57;95514.50;4935363;29;20217;-82
2022/12/07 01:58:13;;;;;;;7.73;6.47;;;;;;;4.90;85.77;95510.72;4926990;29;20251;-82
2022/12/07 02:00:39;;;;;;;8.97;6.97;;;;;;;4.87;85.10;95516.09;4935688;29;20705;-82
2022/12/07 02:03:11;;;;;;;7.20;6.50;;;;;;;4.91;85.38;95514.88;4935599;29;20202;-80
2022/12/07 02:05:42;;;;;;;7.43;6.63;;;;;;;4.92;85.27;95515.69;4935227;29;20210;-82
2022/12/07 02:08:10;;;;;;;7.93;6.43;;;;;;;4.97;85.11;95516.88;4935053;29;20201;-81
2022/12/07 02:10:37;;;;;;;7.23;6.50;;;;;;;4.98;85.26;95505.72;4935451;29;20197;-81
2022/12/07 02:13:06;;;;;;;6.93;6.23;;;;;;;5.01;84.92;95512.25;4935606;29;20200;-82
2022/12/07 02:15:45;;;;;;;7.57;6.50;;;;;;;4.98;84.99;95505.72;4927880;29;20595;-82
2022/12/07 02:18:20;;;;;;;8.00;6.30;;;;;;;4.97;85.08;95508.41;4934326;29;20196;-80
2022/12/07 02:20:55;;;;;;;7.50;6.80;;;;;;;4.99;85.27;95502.22;4934297;29;20200;-82
2022/12/07 02:24:25;;;;;;;7.97;7.17;;;;;;;4.97;84.95;95500.75;4935139;29;20574;-80
2022/12/07 02:27:22;;;;;;;6.83;6.17;;;;;;;4.93;85.17;95499.44;4808423;29;20216;-82
2022/12/07 02:29:59;;;;;;;8.50;6.30;;;;;;;4.86;85.64;95494.91;4855612;29;20406;-82
2022/12/07 02:32:29;;;;;;;7.97;7.13;;;;;;;4.84;86.11;95495.97;4928359;29;20193;-81
2022/12/07 02:35:04;;;;;;;6.77;6.17;;;;;;;4.85;86.11;95495.84;4934569;29;20205;-82
2022/12/07 02:37:39;;;;;;;7.57;6.87;;;;;;;4.86;86.11;95492.34;4934259;29;20207;-80
2022/12/07 02:40:12;;;;;;;7.40;6.70;;;;;;;4.83;86.35;95500.28;4934578;29;20232;-80
2022/12/07 02:42:44;;;;;;;7.80;6.93;;;;;;;4.88;86.39;95493.94;4927001;29;20201;-82
2022/12/07 02:45:16;;;;;;;6.93;6.23;;;;;;;4.91;86.02;95499.56;4934354;29;20209;-81
2022/12/07 02:47:45;;;;;;;7.17;6.47;;;;;;;4.95;86.05;95498.34;4934251;29;20225;-81
2022/12/07 02:50:12;;;;;;;6.80;6.10;;;;;;;4.96;85.77;95491.50;4934246;29;20222;-82
2022/12/07 02:52:38;;;;;;;7.63;6.47;;;;;;;4.98;85.36;95492.97;4934181;29;20202;-81
2022/12/07 02:55:07;;;;;;;7.53;6.73;;;;;;;5.04;85.34;95494.09;4934226;29;20240;-82
2022/12/07 02:57:53;;;;;;;6.80;6.10;;;;;;;5.03;85.30;95493.31;4933967;29;20209;-81
2022/12/07 03:00:22;;;;;;;7.00;6.30;;;;;;;5.04;84.87;95487.25;4934006;29;20221;-82
2022/12/07 03:02:54;;;;;;;7.47;6.67;;;;;;;5.07;85.20;95492.06;4933910;29;20197;-83
2022/12/07 03:05:51;;;;;;;7.10;6.40;;;;;;;5.01;85.32;95490.09;4934001;29;20221;-81
2022/12/07 03:08:25;;;;;;;8.10;6.43;;;;;;;5.02;85.16;95494.25;4933771;29;20194;-81
2022/12/07 03:10:57;;;;;;;7.23;6.53;;;;;;;5.04;85.21;95492.34;4933652;29;20561;-81
2022/12/07 03:13:29;;;;;;;7.83;6.43;;;;;;;5.06;84.94;95492.22;4934116;29;20186;-82
2022/12/07 03:16:02;;;;;;;8.73;6.70;;;;;;;5.04;85.17;95489.81;4933822;29;20209;-81
2022/12/07 03:18:33;;;;;;;7.10;6.40;;;;;;;5.04;85.15;95489.00;4933202;29;20599;-81
2022/12/07 03:21:05;;;;;;;8.50;7.43;;;;;;;4.97;86.07;95490.56;4934078;29;20282;-82
2022/12/07 03:23:35;;;;;;;7.17;6.47;;;;;;;4.97;86.05;95491.34;4933136;29;20201;-82
2022/12/07 03:26:04;;;;;;;7.53;6.77;;;;;;;5.01;85.95;95491.84;4934332;29;20197;-82
2022/12/07 03:28:35;;;;;;;7.20;6.50;;;;;;;5.00;86.10;95488.53;4933221;29;20217;-80
2022/12/07 03:31:07;;;;;;;7.50;6.80;;;;;;;5.03;86.13;95490.75;4932824;29;20658;-81
2022/12/07 03:33:40;;;;;;;8.00;6.67;;;;;;;5.03;85.97;95488.19;4933680;29;20201;-81
2022/12/07 03:36:12;;;;;;;8.27;7.37;;;;;;;4.94;86.09;95486.53;4933685;29;20573;-82
2022/12/07 03:38:43;;;;;;;7.60;6.53;;;;;;;4.94;86.03;95490.84;4933049;29;20232;-80
2022/12/07 03:41:14;;;;;;;7.73;6.93;;;;;;;4.94;86.20;95488.28;4933184;29;20198;-81
2022/12/07 03:43:42;;;;;;;7.77;6.97;;;;;;;4.92;86.29;95488.44;4933622;29;20205;-81
2022/12/07 03:46:20;;;;;;;9.63;7.27;;;;;;;4.89;86.98;95487.91;4933694;29;20208;-82
2022/12/07 03:48:56;;;;;;;12.90;7.43;;;;;;;4.88;86.74;95473.53;4933374;29;20312;-82
2022/12/07 03:51:29;;;;;;;10.13;8.00;;;;;;;4.89;86.68;95483.59;4933068;29;20193;-81
2022/12/07 03:54:03;;;;;;;7.80;7.00;;;;;;;4.86;87.03;95479.59;4924100;29;20228;-82
2022/12/07 03:56:31;;;;;;;9.33;7.27;;;;;;;4.79;87.41;95478.56;4933687;29;20204;-81
2022/12/07 03:58:57;;;;;;;8.37;7.47;;;;;;;4.79;87.14;95478.56;4932767;29;20232;-82
2022/12/07 04:01:26;;;;;;;9.87;7.87;;;;;;;4.82;87.31;95480.81;4931984;29;20205;-81
2022/12/07 04:03:52;;;;;;;8.70;7.43;;;;;;;4.82;87.40;95475.72;4932751;29;20208;-81
2022/12/07 04:06:19;;;;;;;8.47;7.57;;;;;;;4.90;87.14;95474.22;4932730;29;20198;-82
2022/12/07 04:08:45;;;;;;;7.30;6.60;;;;;;;4.83;87.33;95473.97;4931855;29;20225;-81
2022/12/07 04:11:12;;;;;;;7.97;7.07;;;;;;;4.79;87.80;95468.38;4932768;29;20654;-81
2022/12/07 04:16:18;;;;;;;8.30;7.17;;;;;;;4.78;87.97;95476.97;4932106;29;20202;-80
2022/12/07 04:18:47;;;;;;;8.87;7.97;;;;;;;4.84;87.80;95478.13;4932096;29;20222;-80
2022/12/07 04:21:13;;;;;;;9.67;7.57;;;;;;;4.90;87.38;95481.84;4932605;29;20665;-81
2022/12/07 04:23:40;;;;;;;8.50;7.63;;;;;;;4.92;87.24;95477.41;4932505;29;20223;-82
2022/12/07 04:26:06;;;;;;;9.63;8.03;;;;;;;4.96;87.27;95483.84;4932582;29;20202;-81
2022/12/07 04:28:33;;;;;;;8.47;7.53;;;;;;;4.94;87.61;95478.06;4931358;29;20230;-81
2022/12/07 04:30:59;;;;;;;10.53;7.67;;;;;;;4.95;87.34;95479.69;4932585;29;20202;-81
2022/12/07 04:33:25;;;;;;;8.03;7.23;;;;;;;4.96;87.33;95481.28;4932589;29;20208;-82
2022/12/07 04:35:53;;;;;;;7.90;7.10;;;;;;;4.94;87.64;95475.53;4932704;29;20202;-79
2022/12/07 04:38:20;;;;;;;8.57;7.07;;;;;;;4.94;87.91;95476.34;4932686;29;20198;-81
2022/12/07 04:40:46;;;;;;;8.77;7.40;;;;;;;4.97;87.42;95472.69;4932636;29;20224;-81
2022/12/07 04:43:12;;;;;;;8.80;7.43;;;;;;;4.95;87.96;95479.69;4935095;29;20213;-81
2022/12/07 04:45:39;;;;;;;7.80;7.00;;;;;;;4.88;88.88;95481.19;4936372;29;20209;-82
2022/12/07 04:48:06;;;;;;;8.90;7.80;;;;;;;4.85;89.16;95479.72;4928014;29;20216;-81
2022/12/07 04:50:32;;;;;;;8.03;7.23;;;;;;;4.90;89.23;95476.75;4935894;29;20217;-82
2022/12/07 04:53:00;;;;;;;8.00;7.20;;;;;;;4.90;88.61;95472.47;4935063;29;20213;-81
2022/12/07 04:55:27;;;;;;;8.33;7.43;;;;;;;4.91;89.07;95481.72;4935160;29;20209;-81
2022/12/07 04:57:53;;;;;;;8.53;7.40;;;;;;;4.91;89.06;95475.81;4936264;29;20201;-81
2022/12/07 05:00:20;;;;;;;8.77;7.87;;;;;;;4.94;88.66;95475.53;4935872;29;20225;-82
2022/12/07 05:02:46;;;;;;;8.40;7.50;;;;;;;4.89;89.34;95475.16;4936006;29;20201;-81
2022/12/07 05:05:13;;;;;;;8.13;7.33;;;;;;;4.83;89.56;95477.31;4935456;29;20260;-82
2022/12/07 05:07:39;;;;;;;8.50;7.43;;;;;;;4.80;89.68;95482.72;4935489;29;20205;-81
2022/12/07 05:10:08;;;;;;;8.20;7.30;;;;;;;4.80;89.25;95479.38;4936498;29;20220;-82
2022/12/07 05:12:35;;;;;;;8.83;7.40;;;;;;;4.80;89.36;95477.63;4935560;29;20198;-81
2022/12/07 05:15:01;;;;;;;8.60;7.80;;;;;;;4.80;88.83;95487.03;4935546;29;20210;-82
2022/12/07 05:17:28;;;;;;;8.97;7.67;;;;;;;4.81;89.08;95479.22;4934850;29;20209;-80
2022/12/07 05:19:54;;;;;;;8.57;7.40;;;;;;;4.78;88.98;95489.72;4935102;29;20217;-81
2022/12/07 05:22:21;;;;;;;9.93;8.60;;;;;;;4.80;88.70;95481.94;4935707;29;20201;-81
2022/12/07 05:24:47;;;;;;;8.63;7.53;;;;;;;4.72;89.29;95481.84;4935284;29;20953;-82
2022/12/07 05:27:15;;;;;;;8.93;7.87;;;;;;;4.64;89.40;95485.09;4935330;29;20557;-82
2022/12/07 05:29:41;;;;;;;8.40;7.47;;;;;;;4.63;89.56;95472.47;4934931;29;20608;-81
2022/12/07 05:32:08;;;;;;;8.37;7.47;;;;;;;4.65;89.96;95473.94;4935008;29;20212;-82
2022/12/07 05:34:34;;;;;;;8.73;7.83;;;;;;;4.65;89.86;95484.13;4935394;29;20807;-82
2022/12/07 05:37:01;;;;;;;9.53;7.63;;;;;;;4.62;89.98;95483.66;4934889;29;20252;-82
2022/12/07 05:39:27;;;;;;;9.03;8.13;;;;;;;4.61;90.09;95479.50;4934665;29;20740;-82
2022/12/07 05:44:39;;;;;;;9.23;8.33;;;;;;;4.65;89.69;95486.69;4932223;29;20221;-80
2022/12/07 05:47:06;;;;;;;9.20;8.13;;;;;;;4.64;89.58;95482.53;4932856;29;20202;-81
2022/12/07 05:49:33;;;;;;;9.50;8.50;;;;;;;4.66;89.30;95484.94;4934131;29;20217;-82
2022/12/07 05:51:59;;;;;;;9.50;8.50;;;;;;;4.65;89.44;95480.78;4934969;29;20201;-81
2022/12/07 05:54:26;;;;;;;9.23;8.33;;;;;;;4.62;89.18;95481.88;4933446;29;20213;-81
2022/12/07 05:56:53;;;;;;;9.50;8.50;;;;;;;4.60;89.06;95485.53;4934890;29;20213;-82
2022/12/07 05:59:22;;;;;;;9.63;8.60;;;;;;;4.57;89.85;95471.31;4934570;29;20232;-81
2022/12/07 06:01:50;;;;;;;9.20;8.20;;;;;;;4.56;89.68;95481.66;4935127;29;20213;-82
2022/12/07 06:04:17;;;;;;;10.03;8.67;;;;;;;4.59;89.91;95484.72;4935439;29;20601;-81
2022/12/07 06:06:44;;;;;;;9.10;8.10;;;;;;;4.61;89.45;95482.84;4935321;29;20201;-82
2022/12/07 06:09:12;;;;;;;10.33;8.50;;;;;;;4.61;89.11;95485.41;4933868;29;20838;-82
2022/12/07 06:14:22;;;;;;;9.07;8.17;;;;;;;4.60;89.22;95491.44;4934950;29;20610;-80
2022/12/07 06:16:50;;;;;;;10.17;8.37;;;;;;;4.63;88.99;95490.31;4934742;29;20589;-82
2022/12/07 06:19:17;;;;;;;10.20;8.83;;;;;;;4.63;89.15;95492.88;4934909;29;20599;-81
2022/12/07 06:21:43;;;;;;;9.20;8.20;;;;;;;4.64;88.70;95497.03;4935001;29;20205;-81
2022/12/07 06:24:11;;;;;;;9.37;8.27;;;;;;;4.63;88.70;95487.78;4934503;29;20202;-81
2022/12/07 06:26:38;;;;;;;9.93;8.60;;;;;;;4.58;89.35;95495.88;4934848;29;20214;-81
2022/12/07 06:29:04;;;;;;;8.93;8.03;;;;;;;4.62;88.89;95501.50;4934729;29;20337;-80
2022/12/07 06:31:35;;;;;;;9.93;8.87;;;;;;;4.61;90.33;95495.59;4935738;29;20210;-82
2022/12/07 06:34:04;;;;;;;15.90;10.13;;;;;;;4.62;96.51;95499.72;4934717;29;20185;-81
2022/12/07 06:36:31;;;;;;;12.00;10.70;;;;;;;4.67;91.10;95500.09;4934988;29;20210;-82
2022/12/07 06:38:58;;;;;;;15.93;13.67;;;;;;;4.70;89.33;95502.38;4933984;29;20233;-81
2022/12/07 06:41:25;;;;;;;25.23;18.70;;;;;;;4.69;88.71;95495.66;4935457;29;20226;-82
2022/12/07 06:43:51;;;;;;;13.90;10.17;;;;;;;4.71;88.30;95503.97;4935704;29;20334;-82
2022/12/07 06:46:18;;;;;;;10.60;9.27;;;;;;;4.69;87.73;95510.16;4934502;29;20288;-81
2022/12/07 06:48:45;;;;;;;9.63;8.60;;;;;;;4.67;87.70;95500.09;4934213;29;20221;-83
2022/12/07 06:51:13;;;;;;;10.00;8.37;;;;;;;4.65;87.39;95508.84;4935224;29;20202;-82
2022/12/07 06:53:39;;;;;;;9.67;8.23;;;;;;;4.64;87.58;95505.47;4934027;29;20220;-81
2022/12/07 06:56:06;;;;;;;9.67;8.67;;;;;;;4.65;87.72;95507.09;4934295;29;20228;-81
2022/12/07 06:58:33;;;;;;;10.90;9.13;;;;;;;4.62;87.74;95507.38;4934749;29;20190;-82
2022/12/07 07:00:59;;;;;;;8.77;7.87;;;;;;;4.61;87.37;95510.88;4934054;29;20226;-82
2022/12/07 07:03:26;;;;;;;9.63;8.63;;;;;;;4.64;87.51;95513.13;4934696;29;20213;-81
2022/12/07 07:05:52;;;;;;;9.30;8.30;;;;;;;4.66;87.04;95505.34;4934761;29;20585;-82
2022/12/07 07:08:20;;;;;;;9.90;8.83;;;;;;;4.68;86.63;95516.22;4933695;29;20209;-82
2022/12/07 07:10:46;;;;;;;9.67;8.37;;;;;;;4.67;86.52;95509.50;4934205;29;20574;-82
2022/12/07 07:13:13;;;;;;;9.43;8.43;;;;;;;4.67;86.73;95505.19;4934431;29;20209;-81
2022/12/07 07:15:40;;;;;;;9.20;8.20;;;;;;;4.67;86.37;95514.59;4933693;29;20206;-81
2022/12/07 07:18:06;;;;;;;9.43;8.47;;;;;;;4.68;86.62;95519.56;4933712;29;20213;-81
2022/12/07 07:20:33;;;;;;;25.87;19.47;;;;;;;4.64;86.79;95515.69;4934062;29;20233;-81
2022/12/07 07:22:59;;;;;;;18.97;15.23;;;;;;;4.70;86.68;95514.31;4933858;29;20273;-81
2022/12/07 07:25:27;;;;;;;11.27;9.83;;;;;;;4.67;86.88;95519.69;4933981;29;20201;-81
2022/12/07 07:27:53;;;;;;;10.83;9.40;;;;;;;4.65;86.86;95513.94;4933882;29;20206;-81
2022/12/07 07:30:22;;;;;;;10.50;8.53;;;;;;;4.61;86.59;95516.00;4933283;29;20228;-80
2022/12/07 07:32:49;;;;;;;9.73;8.73;;;;;;;4.61;86.55;95512.63;4933801;29;20205;-81
2022/12/07 07:35:16;;;;;;;10.90;8.63;;;;;;;4.67;86.84;95517.16;4933986;29;20202;-81
2022/12/07 07:37:42;;;;;;;11.90;9.20;;;;;;;4.70;86.22;95521.97;4934007;29;20213;-82
2022/12/07 07:40:10;;;;;;;17.47;10.30;;;;;;;4.68;86.22;95522.09;4933710;29;20237;-82
2022/12/07 07:42:37;;;;;;;13.13;9.57;;;;;;;4.72;86.31;95526.00;4933986;29;20218;-82
2022/12/07 07:45:05;;;;;;;14.67;11.63;;;;;;;4.63;85.98;95521.72;4933010;29;20204;-81
2022/12/07 07:47:31;;;;;;;21.70;14.10;;;;;;;4.65;86.21;95524.13;4932732;29;20686;-82
2022/12/07 07:49:58;;;;;;;11.80;10.10;;;;;;;4.60;85.76;95523.78;4933122;29;20221;-81
2022/12/07 07:52:24;;;;;;;11.67;9.90;;;;;;;4.53;86.05;95528.63;4932110;29;20205;-79
2022/12/07 07:54:51;;;;;;;10.63;9.00;;;;;;;4.43;86.27;95528.66;4933195;29;20220;-82
2022/12/07 07:57:18;;;;;;;10.77;9.03;;;;;;;4.46;86.71;95530.91;4935595;29;20220;-81
2022/12/07 07:59:46;;;;;;;10.13;8.97;;;;;;;4.32;86.84;95536.47;4931539;29;20228;-80
2022/12/07 08:02:15;;;;;;;10.77;9.63;;;;;;;4.31;86.73;95534.06;4914896;29;20206;-81
2022/12/07 08:04:42;;;;;;;11.37;9.47;;;;;;;4.43;87.01;95530.41;4925539;29;20206;-83
2022/12/07 08:07:08;;;;;;;10.97;9.87;;;;;;;4.53;87.03;95528.63;4933674;29;20209;-82
2022/12/07 08:09:35;;;;;;;10.67;9.00;;;;;;;4.52;86.44;95532.13;4933684;29;20222;-80
2022/12/07 08:12:01;;;;;;;11.07;9.47;;;;;;;4.49;86.48;95523.00;4933589;29;20217;-82
2022/12/07 08:14:28;;;;;;;10.80;9.70;;;;;;;4.55;86.50;95528.50;4933914;29;20205;-83
2022/12/07 08:16:56;;;;;;;12.17;9.57;;;;;;;4.54;86.04;95529.44;4933338;29;20937;-83
2022/12/07 08:19:23;;;;;;;10.97;9.87;;;;;;;4.56;86.01;95527.53;4933973;29;20229;-82
2022/12/07 08:21:49;;;;;;;12.30;10.00;;;;;;;4.61;86.08;95531.28;4933398;29;20229;-80
2022/12/07 08:24:16;;;;;;;12.20;10.03;;;;;;;4.66;85.73;95536.75;4934056;29;20236;-82
2022/12/07 08:26:43;;;;;;;13.20;9.80;;;;;;;4.67;85.48;95542.66;4933558;29;20212;-81
2022/12/07 08:29:10;;;;;;;13.07;10.33;;;;;;;4.67;85.16;95540.09;4932456;29;20226;-81
2022/12/07 08:31:36;;;;;;;11.37;10.17;;;;;;;4.69;85.24;95545.88;4932693;29;20205;-82
2022/12/07 08:34:04;;;;;;;12.73;10.47;;;;;;;4.59;85.81;95535.72;4933115;29;20224;-80
2022/12/07 08:36:30;;;;;;;12.57;9.83;;;;;;;4.55;85.88;95536.13;4932366;29;20209;-80
2022/12/07 08:38:57;;;;;;;11.60;10.40;;;;;;;4.56;86.23;95533.44;4932547;29;20233;-81
2022/12/07 08:41:23;;;;;;;13.20;10.63;;;;;;;4.58;85.98;95534.13;4932251;29;20225;-81
2022/12/07 08:43:52;;;;;;;12.60;10.67;;;;;;;4.57;85.70;95529.97;4932712;29;20678;-80
2022/12/07 08:46:24;;;;;;;13.43;11.60;;;;;;;4.58;86.08;95539.22;4932790;29;20209;-81
2022/12/07 08:48:56;;;;;;;13.50;11.30;;;;;;;4.61;86.25;95533.03;4932433;29;20229;-81
2022/12/07 08:51:25;;;;;;;12.13;10.20;;;;;;;4.63;85.82;95539.56;4932615;29;20565;-81
2022/12/07 08:53:53;;;;;;;12.13;10.40;;;;;;;4.64;85.24;95535.28;4931308;29;20217;-82
2022/12/07 08:56:21;;;;;;;11.60;10.20;;;;;;;4.57;85.09;95536.81;4932913;29;20677;-82
2022/12/07 08:58:48;;;;;;;11.53;10.10;;;;;;;4.56;84.43;95536.00;4932189;29;20230;-81
2022/12/07 09:01:14;;;;;;;11.43;9.77;;;;;;;4.61;84.27;95531.28;4931702;29;20229;-81
2022/12/07 09:03:41;;;;;;;12.37;10.17;;;;;;;4.66;83.71;95534.19;4933523;29;20685;-82
2022/12/07 09:06:08;;;;;;;10.33;9.13;;;;;;;4.71;83.34;95542.22;4932745;29;20209;-81
2022/12/07 09:08:40;;;;;;;11.00;9.67;;;;;;;4.68;82.49;95539.16;4933210;29;20213;-81
2022/12/07 09:11:07;;;;;;;10.77;8.87;;;;;;;4.73;82.16;95537.00;4933154;29;20689;-80
2022/12/07 09:13:33;;;;;;;14.80;9.40;;;;;;;4.61;81.35;95535.59;4932912;29;20681;-82
2022/12/07 09:16:00;;;;;;;11.80;8.73;;;;;;;4.66;81.87;95530.84;4932825;29;20598;-81
2022/12/07 09:18:26;;;;;;;11.90;10.43;;;;;;;4.79;82.13;95523.69;4932898;29;20221;-82
2022/12/07 09:20:53;;;;;;;10.73;9.23;;;;;;;4.92;81.79;95524.13;4932307;29;20233;-82
2022/12/07 09:23:19;;;;;;;12.30;9.33;;;;;;;4.96;80.82;95537.41;4933413;29;20213;-81
2022/12/07 09:25:47;;;;;;;11.20;9.47;;;;;;;4.97;80.76;95539.81;4933600;29;20220;-81
2022/12/07 09:28:13;;;;;;;9.87;8.67;;;;;;;5.03;80.51;95526.47;4932337;29;20209;-81
2022/12/07 09:30:45;;;;;;;9.27;8.33;;;;;;;5.05;79.88;95531.44;4936254;29;20225;-82
2022/12/07 09:33:12;;;;;;;9.80;8.33;;;;;;;5.04;79.47;95527.28;4936175;29;20212;-81
2022/12/07 09:35:38;;;;;;;10.97;9.07;;;;;;;5.03;79.77;95529.03;4935032;29;20205;-82
2022/12/07 09:38:04;;;;;;;13.00;11.33;;;;;;;5.07;79.38;95530.34;4935718;29;20197;-82
2022/12/07 09:40:31;;;;;;;11.70;9.73;;;;;;;5.05;79.17;95529.69;4936189;29;20233;-81
2022/12/07 09:42:59;;;;;;;9.63;8.40;;;;;;;4.91;78.74;95525.09;4935425;29;20201;-82
2022/12/07 09:45:31;;;;;;;12.03;9.70;;;;;;;5.01;79.42;95525.00;4936029;29;20213;-82
2022/12/07 09:47:59;;;;;;;10.63;9.53;;;;;;;5.07;79.72;95532.09;4916650;29;20187;-80
2022/12/07 09:50:29;;;;;;;9.73;8.67;;;;;;;5.12;79.59;95525.63;4933487;29;20226;-82
2022/12/07 09:53:08;;;;;;;10.67;9.47;;;;;;;5.13;79.70;95523.88;4934973;29;20201;-82
2022/12/07 09:55:37;;;;;;;9.97;8.60;;;;;;;5.18;79.00;95519.16;4934963;29;20599;-81
2022/12/07 09:58:13;;;;;;;9.70;8.70;;;;;;;5.28;78.77;95522.44;4935098;29;20205;-82
2022/12/07 10:00:39;;;;;;;10.40;9.10;;;;;;;5.39;79.04;95523.94;4925814;29;20594;-83
2022/12/07 10:03:06;;;;;;;11.07;8.70;;;;;;;5.50;78.93;95522.00;4916332;29;20218;-81
2022/12/07 10:05:36;;;;;;;11.27;8.93;;;;;;;5.48;77.51;95515.41;4934394;29;20213;-82
2022/12/07 10:08:03;;;;;;;9.67;8.50;;;;;;;5.49;77.82;95509.38;4935017;29;20290;-81
2022/12/07 10:10:32;;;;;;;9.37;8.43;;;;;;;5.55;77.64;95506.22;4935225;29;20225;-81
2022/12/07 10:13:01;;;;;;;10.67;8.90;;;;;;;5.55;76.99;95506.22;4935114;29;20213;-82
2022/12/07 10:15:51;;;;;;;9.63;8.37;;;;;;;5.53;76.40;95514.03;4935003;29;20213;-80
2022/12/07 10:18:36;;;;;;;9.73;8.40;;;;;;;5.49;75.20;95512.72;4934917;29;20186;-81
2022/12/07 10:21:10;;;;;;;12.33;8.43;;;;;;;5.63;75.30;95502.94;4935160;29;20776;-80
2022/12/07 10:23:39;;;;;;;9.57;8.53;;;;;;;5.78;75.84;95507.34;4934628;29;20200;-80
2022/12/07 10:26:21;;;;;;;11.33;8.40;;;;;;;5.71;75.29;95503.00;4935419;29;20213;-81
2022/12/07 10:28:48;;;;;;;9.67;8.33;;;;;;;5.74;74.64;95503.50;4934308;29;20713;-81
2022/12/07 10:31:19;;;;;;;13.40;10.87;;;;;;;5.88;74.67;95503.00;4934841;29;20201;-81
2022/12/07 10:33:51;;;;;;;12.43;10.43;;;;;;;5.84;75.14;95506.75;4934203;29;20206;-81
2022/12/07 10:36:22;;;;;;;10.47;8.17;;;;;;;5.89;73.60;95501.25;4934919;29;20212;-81
2022/12/07 10:38:50;;;;;;;9.60;8.07;;;;;;;5.90;73.72;95505.41;4934216;29;20221;-82
2022/12/07 10:41:17;;;;;;;9.60;8.27;;;;;;;5.97;73.96;95501.28;4934225;29;20885;-82
2022/12/07 10:43:51;;;;;;;8.97;8.07;;;;;;;5.99;71.92;95498.56;4934018;29;20272;-82
2022/12/07 10:46:47;;;;;;;9.03;7.60;;;;;;;6.09;71.56;95494.97;4934120;29;20683;-81
2022/12/07 10:49:40;;;;;;;7.23;6.43;;;;;;;6.12;69.44;95494.69;4933902;29;20715;-82
2022/12/07 10:52:15;;;;;;;7.70;6.90;;;;;;;6.23;70.91;95484.19;4933812;29;20197;-81
2022/12/07 10:54:49;;;;;;;7.70;6.90;;;;;;;6.45;70.27;95482.06;4933942;29;20303;-80
2022/12/07 10:57:32;;;;;;;7.87;7.07;;;;;;;6.55;68.73;95480.16;4934746;29;20196;-82
2022/12/07 11:00:05;;;;;;;8.00;7.20;;;;;;;6.54;69.43;95476.03;4930009;29;20866;-83
2022/12/07 11:03:25;;;;;;;7.40;6.60;;;;;;;6.55;67.02;95470.72;4915871;29;20251;-82
2022/12/07 11:06:03;;;;;;;7.03;6.27;;;;;;;6.67;66.64;95468.72;4886410;29;20643;-80
2022/12/07 11:08:45;;;;;;;6.73;6.03;;;;;;;6.67;66.22;95457.69;4893270;29;20733;-83
2022/12/07 11:11:16;;;;;;;6.20;5.53;;;;;;;6.74;65.09;95464.56;4906491;29;20208;-80
2022/12/07 11:13:48;;;;;;;8.33;6.90;;;;;;;6.93;64.06;95456.63;4915700;29;20210;-81
2022/12/07 11:16:40;;;;;;;7.20;6.47;;;;;;;7.19;68.19;95448.81;4915317;29;20221;-81
2022/12/07 11:19:26;;;;;;;8.57;5.77;;;;;;;7.53;62.33;95455.53;4915492;29;20230;-82
2022/12/07 11:21:58;;;;;;;7.63;5.53;;;;;;;7.56;61.17;95453.47;4915332;29;20708;-82
2022/12/07 11:24:32;;;;;;;6.57;5.47;;;;;;;7.76;61.35;95446.25;4915394;29;20214;-81
2022/12/07 11:27:10;;;;;;;6.67;5.73;;;;;;;7.91;60.87;95447.19;4923277;29;20205;-82
2022/12/07 11:30:03;;;;;;;6.17;5.63;;;;;;;8.12;60.28;95435.59;4933524;29;20226;-80
2022/12/07 11:32:47;;;;;;;6.77;6.00;;;;;;;8.24;61.08;95426.59;4930090;29;20208;-82
2022/12/07 11:35:23;;;;;;;6.30;5.60;;;;;;;8.16;60.66;95432.53;4933728;29;20205;-82
2022/12/07 11:37:57;;;;;;;7.50;5.93;;;;;;;8.08;59.86;95436.91;4933913;29;20236;-83
2022/12/07 11:40:29;;;;;;;6.87;6.17;;;;;;;7.90;59.67;95444.78;4933163;29;20621;-81
2022/12/07 11:43:00;;;;;;;6.63;6.03;;;;;;;7.73;60.90;95441.44;4933690;29;20308;-82
2022/12/07 11:45:29;;;;;;;7.50;5.97;;;;;;;7.65;60.27;95427.84;4933994;29;20701;-81
2022/12/07 11:48:00;;;;;;;5.77;5.20;;;;;;;7.60;59.70;95425.78;4932790;29;20206;-82
2022/12/07 11:50:35;;;;;;;7.13;5.93;;;;;;;7.54;59.89;95424.66;4933975;29;20232;-82
2022/12/07 11:53:11;;;;;;;6.30;4.50;;;;;;;7.36;59.60;95418.09;4931688;29;20301;-83
2022/12/07 11:55:44;;;;;;;5.10;4.60;;;;;;;7.30;59.67;95419.56;4933448;29;20302;-82
2022/12/07 11:58:23;;;;;;;9.23;7.77;;;;;;;7.36;58.00;95413.78;4933547;29;20202;-81
2022/12/07 12:00:52;;;;;;;9.40;8.03;;;;;;;7.53;58.13;95412.00;4927358;29;20197;-82